sensor_id;sensor_type;location;lat;lon;timestamp;pressure;altitude;pressure_sealevel;temperature;humidity
60307;BME280;46155;52.364;6.580;2023-10-08T03:02:38;102068.44;;;12.92;100.00
60307;BME280;46155;52.364;6.580;2023-10-08T03:05:05;102075.97;;;12.99;100.00
60307;BME280;46155;52.364;6.580;2023-10-08T03:07:33;102087.47;;;12.88;100.00
60307;BME280;46155;52.364;6.580;2023-10-08T03:10:00;102100.28;;;12.95;100.00
60307;BME280;46155;52.364;6.580;2023-10-08T03:12:29;102090.19;;;13.01;100.00
60307;BME280;46155;52.364;6.580;2023-10-08T03:15:01;102083.72;;;13.09;100.00
60307;BME280;46155;52.364;6.580;2023-10-08T03:17:38;102082.81;;;13.09;100.00
60307;BME280;46155;52.364;6.580;2023-10-08T03:20:05;102076.63;;;13.08;100.00
60307;BME280;46155;52.364;6.580;2023-10-08T03:22:50;102078.44;;;13.09;100.00
60307;BME280;46155;52.364;6.580;2023-10-08T03:25:15;102089.00;;;13.09;100.00
60307;BME280;46155;52.364;6.580;2023-10-08T03:27:43;102091.97;;;13.14;100.00
60307;BME280;46155;52.364;6.580;2023-10-08T03:30:08;102087.59;;;13.15;100.00
60307;BME280;46155;52.364;6.580;2023-10-08T03:32:42;102080.72;;;13.17;100.00
60307;BME280;46155;52.364;6.580;2023-10-08T03:35:09;102077.06;;;13.15;100.00
60307;BME280;46155;52.364;6.580;2023-10-08T03:37:36;102073.41;;;13.13;100.00
60307;BME280;46155;52.364;6.580;2023-10-08T03:40:07;102074.91;;;13.09;100.00
60307;BME280;46155;52.364;6.580;2023-10-08T03:42:49;102077.13;;;13.03;100.00
60307;BME280;46155;52.364;6.580;2023-10-08T03:45:14;102093.41;;;12.97;100.00
60307;BME280;46155;52.364;6.580;2023-10-08T03:47:48;102100.94;;;13.04;100.00
60307;BME280;46155;52.364;6.580;2023-10-08T03:50:28;102114.97;;;12.91;100.00
60307;BME280;46155;52.364;6.580;2023-10-08T03:52:58;102125.50;;;12.91;100.00
60307;BME280;46155;52.364;6.580;2023-10-08T03:55:25;102102.13;;;12.96;100.00
60307;BME280;46155;52.364;6.580;2023-10-08T03:57:52;102104.53;;;12.93;100.00
60307;BME280;46155;52.364;6.580;2023-10-08T04:00:24;102111.63;;;12.94;100.00
60307;BME280;46155;52.364;6.580;2023-10-08T04:02:57;102134.88;;;13.00;100.00
60307;BME280;46155;52.364;6.580;2023-10-08T04:05:28;102135.47;;;12.96;100.00
60307;BME280;46155;52.364;6.580;2023-10-08T04:07:59;102136.22;;;13.06;100.00
60307;BME280;46155;52.364;6.580;2023-10-08T04:10:28;102153.22;;;12.98;100.00
60307;BME280;46155;52.364;6.580;2023-10-08T04:13:02;102163.41;;;13.05;100.00
60307;BME280;46155;52.364;6.580;2023-10-08T04:15:27;102159.84;;;13.05;100.00
60307;BME280;46155;52.364;6.580;2023-10-08T04:17:53;102159.59;;;13.14;100.00
60307;BME280;46155;52.364;6.580;2023-10-08T04:20:18;102166.56;;;13.25;100.00
60307;BME280;46155;52.364;6.580;2023-10-08T04:23:07;102194.66;;;13.24;100.00
60307;BME280;46155;52.364;6.580;2023-10-08T04:25:43;102187.22;;;13.19;100.00
60307;BME280;46155;52.364;6.580;2023-10-08T04:28:09;102184.84;;;13.10;100.00
60307;BME280;46155;52.364;6.580;2023-10-08T04:30:39;102169.88;;;13.22;100.00
60307;BME280;46155;52.364;6.580;2023-10-08T04:33:07;102185.59;;;13.21;100.00
60307;BME280;46155;52.364;6.580;2023-10-08T04:35:37;102190.97;;;13.22;100.00
60307;BME280;46155;52.364;6.580;2023-10-08T04:38:13;102173.59;;;13.13;100.00
60307;BME280;46155;52.364;6.580;2023-10-08T04:40:42;102192.66;;;13.08;100.00
60307;BME280;46155;52.364;6.580;2023-10-08T04:43:20;102140.34;;;13.15;100.00
60307;BME280;46155;52.364;6.580;2023-10-08T04:45:57;102167.66;;;13.03;100.00
60307;BME280;46155;52.364;6.580;2023-10-08T04:48:25;102162.75;;;12.96;100.00
60307;BME280;46155;52.364;6.580;2023-10-08T04:50:56;102165.84;;;12.90;100.00
60307;BME280;46155;52.364;6.580;2023-10-08T04:53:30;102179.13;;;12.92;100.00
60307;BME280;46155;52.364;6.580;2023-10-08T04:56:07;102181.34;;;12.86;100.00
60307;BME280;46155;52.364;6.580;2023-10-08T04:58:42;102158.06;;;12.92;100.00
60307;BME280;46155;52.364;6.580;2023-10-08T05:01:12;102184.63;;;12.95;100.00
60307;BME280;46155;52.364;6.580;2023-10-08T05:03:53;102193.81;;;13.00;100.00
60307;BME280;46155;52.364;6.580;2023-10-08T05:06:27;102190.94;;;12.97;100.00
60307;BME280;46155;52.364;6.580;2023-10-08T05:09:11;102204.22;;;12.99;100.00
60307;BME280;46155;52.364;6.580;2023-10-08T05:11:38;102202.63;;;12.89;100.00
60307;BME280;46155;52.364;6.580;2023-10-08T05:14:20;102198.19;;;12.76;100.00
60307;BME280;46155;52.364;6.580;2023-10-08T05:17:02;102196.34;;;12.75;100.00
60307;BME280;46155;52.364;6.580;2023-10-08T05:19:43;102167.81;;;12.69;100.00
60307;BME280;46155;52.364;6.580;2023-10-08T05:22:41;102182.63;;;12.67;100.00
60307;BME280;46155;52.364;6.580;2023-10-08T05:25:10;102202.28;;;12.72;100.00
60307;BME280;46155;52.364;6.580;2023-10-08T05:27:43;102208.13;;;12.68;100.00
60307;BME280;46155;52.364;6.580;2023-10-08T05:30:29;102222.69;;;12.63;100.00
60307;BME280;46155;52.364;6.580;2023-10-08T05:33:08;102228.75;;;12.62;100.00
60307;BME280;46155;52.364;6.580;2023-10-08T05:35:44;102237.00;;;12.55;100.00
60307;BME280;46155;52.364;6.580;2023-10-08T05:38:14;102247.44;;;12.65;100.00
60307;BME280;46155;52.364;6.580;2023-10-08T05:40:55;102237.34;;;12.60;100.00
60307;BME280;46155;52.364;6.580;2023-10-08T05:43:34;102226.56;;;12.68;100.00
60307;BME280;46155;52.364;6.580;2023-10-08T05:46:09;102227.28;;;12.78;100.00
60307;BME280;46155;52.364;6.580;2023-10-08T05:48:48;102238.75;;;12.66;100.00
60307;BME280;46155;52.364;6.580;2023-10-08T05:51:30;102274.00;;;12.68;100.00
60307;BME280;46155;52.364;6.580;2023-10-08T05:57:05;102278.59;;;12.59;100.00
60307;BME280;46155;52.364;6.580;2023-10-08T05:59:40;102256.13;;;12.64;100.00
60307;BME280;46155;52.364;6.580;2023-10-08T06:05:07;102258.88;;;12.66;100.00
60307;BME280;46155;52.364;6.580;2023-10-08T06:07:39;102286.38;;;12.69;100.00
60307;BME280;46155;52.364;6.580;2023-10-08T06:13:01;102281.56;;;12.75;100.00
60307;BME280;46155;52.364;6.580;2023-10-08T06:15:45;102274.38;;;12.85;100.00
60307;BME280;46155;52.364;6.580;2023-10-08T06:20:41;102286.66;;;12.84;100.00
60307;BME280;46155;52.364;6.580;2023-10-08T06:23:12;102273.22;;;12.81;100.00
60307;BME280;46155;52.364;6.580;2023-10-08T06:25:41;102272.97;;;12.78;100.00
60307;BME280;46155;52.364;6.580;2023-10-08T06:28:17;102269.22;;;12.86;100.00
60307;BME280;46155;52.364;6.580;2023-10-08T06:30:46;102264.97;;;12.88;100.00
60307;BME280;46155;52.364;6.580;2023-10-08T06:33:12;102260.97;;;12.82;100.00
60307;BME280;46155;52.364;6.580;2023-10-08T06:35:38;102270.13;;;12.99;100.00
60307;BME280;46155;52.364;6.580;2023-10-08T06:38:09;102267.28;;;12.96;100.00
60307;BME280;46155;52.364;6.580;2023-10-08T06:40:35;102255.22;;;12.99;100.00
60307;BME280;46155;52.364;6.580;2023-10-08T06:43:04;102259.34;;;13.07;100.00
60307;BME280;46155;52.364;6.580;2023-10-08T06:45:47;102252.00;;;13.15;100.00
60307;BME280;46155;52.364;6.580;2023-10-08T06:48:17;102264.41;;;13.04;100.00
60307;BME280;46155;52.364;6.580;2023-10-08T06:50:50;102266.56;;;12.98;100.00
60307;BME280;46155;52.364;6.580;2023-10-08T06:53:16;102270.38;;;12.90;100.00
60307;BME280;46155;52.364;6.580;2023-10-08T06:55:46;102272.53;;;12.84;100.00
60307;BME280;46155;52.364;6.580;2023-10-08T06:58:13;102277.56;;;12.81;100.00
60307;BME280;46155;52.364;6.580;2023-10-08T07:00:40;102303.56;;;12.64;100.00
60307;BME280;46155;52.364;6.580;2023-10-08T07:03:09;102323.63;;;12.62;100.00
60307;BME280;46155;52.364;6.580;2023-10-08T07:05:46;102339.97;;;12.58;100.00
60307;BME280;46155;52.364;6.580;2023-10-08T07:08:30;102342.28;;;12.65;100.00
60307;BME280;46155;52.364;6.580;2023-10-08T07:11:02;102341.16;;;12.73;100.00
60307;BME280;46155;52.364;6.580;2023-10-08T07:13:32;102328.78;;;12.72;100.00
60307;BME280;46155;52.364;6.580;2023-10-08T07:15:58;102314.34;;;12.67;100.00
60307;BME280;46155;52.364;6.580;2023-10-08T07:18:29;102314.34;;;12.79;100.00
60307;BME280;46155;52.364;6.580;2023-10-08T07:20:59;102320.75;;;12.71;100.00
60307;BME280;46155;52.364;6.580;2023-10-08T07:23:30;102333.81;;;12.69;100.00
60307;BME280;46155;52.364;6.580;2023-10-08T07:26:00;102330.41;;;12.70;100.00
60307;BME280;46155;52.364;6.580;2023-10-08T07:28:44;102323.72;;;12.75;100.00
60307;BME280;46155;52.364;6.580;2023-10-08T07:31:19;102347.38;;;12.86;100.00
60307;BME280;46155;52.364;6.580;2023-10-08T07:33:49;102355.41;;;12.99;100.00
60307;BME280;46155;52.364;6.580;2023-10-08T07:36:24;102346.03;;;13.03;100.00
60307;BME280;46155;52.364;6.580;2023-10-08T07:38:51;102379.50;;;13.16;100.00
60307;BME280;46155;52.364;6.580;2023-10-08T07:41:16;102376.16;;;13.06;100.00
60307;BME280;46155;52.364;6.580;2023-10-08T07:43:42;102369.63;;;13.01;100.00
60307;BME280;46155;52.364;6.580;2023-10-08T07:46:08;102352.31;;;12.93;100.00
60307;BME280;46155;52.364;6.580;2023-10-08T07:48:34;102339.34;;;12.96;100.00
60307;BME280;46155;52.364;6.580;2023-10-08T07:51:00;102327.44;;;13.01;100.00
60307;BME280;46155;52.364;6.580;2023-10-08T07:53:25;102356.13;;;13.08;100.00
60307;BME280;46155;52.364;6.580;2023-10-08T07:56:05;102343.50;;;13.04;100.00
60307;BME280;46155;52.364;6.580;2023-10-08T07:58:37;102339.94;;;13.16;100.00
60307;BME280;46155;52.364;6.580;2023-10-08T08:01:11;102346.13;;;13.28;100.00
60307;BME280;46155;52.364;6.580;2023-10-08T08:03:39;102353.34;;;13.31;100.00
60307;BME280;46155;52.364;6.580;2023-10-08T08:06:07;102330.88;;;13.12;100.00
60307;BME280;46155;52.364;6.580;2023-10-08T08:08:34;102338.78;;;13.24;100.00
60307;BME280;46155;52.364;6.580;2023-10-08T08:11:00;102350.72;;;13.19;100.00
60307;BME280;46155;52.364;6.580;2023-10-08T08:13:32;102366.88;;;13.12;100.00
60307;BME280;46155;52.364;6.580;2023-10-08T08:15:59;102361.84;;;13.15;100.00
60307;BME280;46155;52.364;6.580;2023-10-08T08:18:37;102372.84;;;13.09;100.00
60307;BME280;46155;52.364;6.580;2023-10-08T08:21:02;102400.59;;;13.16;100.00
60307;BME280;46155;52.364;6.580;2023-10-08T08:23:29;102393.03;;;13.08;100.00
60307;BME280;46155;52.364;6.580;2023-10-08T08:25:55;102404.03;;;13.15;100.00
60307;BME280;46155;52.364;6.580;2023-10-08T08:28:32;102403.56;;;13.08;100.00
60307;BME280;46155;52.364;6.580;2023-10-08T08:31:04;102403.56;;;13.20;100.00
60307;BME280;46155;52.364;6.580;2023-10-08T08:33:32;102399.34;;;13.34;100.00
60307;BME280;46155;52.364;6.580;2023-10-08T08:36:24;102401.09;;;13.46;100.00
60307;BME280;46155;52.364;6.580;2023-10-08T08:38:50;102396.50;;;13.55;100.00
60307;BME280;46155;52.364;6.580;2023-10-08T08:41:16;102395.44;;;13.65;100.00
60307;BME280;46155;52.364;6.580;2023-10-08T08:43:48;102389.81;;;13.84;100.00
60307;BME280;46155;52.364;6.580;2023-10-08T08:46:14;102398.50;;;13.94;100.00
60307;BME280;46155;52.364;6.580;2023-10-08T08:48:41;102402.63;;;14.03;100.00
60307;BME280;46155;52.364;6.580;2023-10-08T08:51:07;102412.78;;;14.22;100.00
60307;BME280;46155;52.364;6.580;2023-10-08T08:53:33;102411.00;;;14.34;100.00
60307;BME280;46155;52.364;6.580;2023-10-08T08:55:59;102410.16;;;14.22;100.00
60307;BME280;46155;52.364;6.580;2023-10-08T08:58:35;102411.66;;;14.18;100.00
60307;BME280;46155;52.364;6.580;2023-10-08T09:01:03;102407.13;;;14.29;100.00
60307;BME280;46155;52.364;6.580;2023-10-08T09:03:30;102405.28;;;14.28;100.00
60307;BME280;46155;52.364;6.580;2023-10-08T09:05:59;102406.53;;;13.96;100.00
60307;BME280;46155;52.364;6.580;2023-10-08T09:08:29;102404.94;;;13.86;100.00
60307;BME280;46155;52.364;6.580;2023-10-08T09:10:59;102399.44;;;13.95;100.00
60307;BME280;46155;52.364;6.580;2023-10-08T09:13:27;102405.16;;;14.01;100.00
60307;BME280;46155;52.364;6.580;2023-10-08T09:15:56;102414.31;;;14.06;100.00
60307;BME280;46155;52.364;6.580;2023-10-08T09:18:23;102415.78;;;14.15;100.00
60307;BME280;46155;52.364;6.580;2023-10-08T09:20:49;102424.41;;;14.12;100.00
60307;BME280;46155;52.364;6.580;2023-10-08T09:23:15;102420.16;;;14.14;100.00
60307;BME280;46155;52.364;6.580;2023-10-08T09:25:45;102426.22;;;14.25;100.00
60307;BME280;46155;52.364;6.580;2023-10-08T09:28:11;102432.84;;;14.32;100.00
60307;BME280;46155;52.364;6.580;2023-10-08T09:30:40;102432.63;;;14.28;100.00
60307;BME280;46155;52.364;6.580;2023-10-08T09:33:07;102424.31;;;14.10;100.00
60307;BME280;46155;52.364;6.580;2023-10-08T09:35:33;102417.34;;;14.24;100.00
60307;BME280;46155;52.364;6.580;2023-10-08T09:38:03;102412.84;;;14.35;100.00
60307;BME280;46155;52.364;6.580;2023-10-08T09:40:29;102401.47;;;14.36;100.00
60307;BME280;46155;52.364;6.580;2023-10-08T09:42:55;102402.53;;;14.26;100.00
60307;BME280;46155;52.364;6.580;2023-10-08T09:45:21;102404.03;;;14.35;100.00
60307;BME280;46155;52.364;6.580;2023-10-08T09:47:50;102406.19;;;14.40;100.00
60307;BME280;46155;52.364;6.580;2023-10-08T09:50:22;102413.53;;;14.44;100.00
60307;BME280;46155;52.364;6.580;2023-10-08T09:55:31;102416.50;;;14.37;100.00
60307;BME280;46155;52.364;6.580;2023-10-08T09:57:56;102416.75;;;14.40;100.00
60307;BME280;46155;52.364;6.580;2023-10-08T10:00:23;102414.47;;;14.58;100.00
60307;BME280;46155;52.364;6.580;2023-10-08T10:03:00;102409.56;;;14.63;100.00
60307;BME280;46155;52.364;6.580;2023-10-08T10:05:32;102412.72;;;14.71;100.00
60307;BME280;46155;52.364;6.580;2023-10-08T10:07:57;102405.06;;;14.62;100.00
60307;BME280;46155;52.364;6.580;2023-10-08T10:10:30;102408.28;;;14.58;100.00
60307;BME280;46155;52.364;6.580;2023-10-08T10:13:09;102411.13;;;14.61;100.00
60307;BME280;46155;52.364;6.580;2023-10-08T10:15:41;102414.34;;;14.57;100.00
60307;BME280;46155;52.364;6.580;2023-10-08T10:18:27;102411.00;;;14.34;100.00
60307;BME280;46155;52.364;6.580;2023-10-08T10:21:00;102421.06;;;14.52;100.00
60307;BME280;46155;52.364;6.580;2023-10-08T10:23:46;102425.25;;;14.73;100.00
60307;BME280;46155;52.364;6.580;2023-10-08T10:31:35;102443.38;;;14.94;100.00
60307;BME280;46155;52.364;6.580;2023-10-08T10:34:09;102452.19;;;15.06;100.00
60307;BME280;46155;52.364;6.580;2023-10-08T10:36:36;102447.28;;;15.12;100.00
60307;BME280;46155;52.364;6.580;2023-10-08T10:39:02;102453.84;;;14.92;100.00
60307;BME280;46155;52.364;6.580;2023-10-08T10:41:45;102451.97;;;15.03;100.00
60307;BME280;46155;52.364;6.580;2023-10-08T10:44:17;102441.91;;;15.11;100.00
60307;BME280;46155;52.364;6.580;2023-10-08T10:46:45;102442.63;;;15.08;100.00
60307;BME280;46155;52.364;6.580;2023-10-08T10:49:18;102427.75;;;14.97;100.00
60307;BME280;46155;52.364;6.580;2023-10-08T10:52:10;102435.09;;;15.14;100.00
60307;BME280;46155;52.364;6.580;2023-10-08T10:54:43;102439.50;;;15.27;100.00
60307;BME280;46155;52.364;6.580;2023-10-08T10:57:24;102428.81;;;15.39;100.00
60307;BME280;46155;52.364;6.580;2023-10-08T10:59:52;102419.84;;;15.24;100.00
60307;BME280;46155;52.364;6.580;2023-10-08T11:02:19;102430.06;;;15.31;100.00
60307;BME280;46155;52.364;6.580;2023-10-08T11:04:56;102416.94;;;15.32;100.00
60307;BME280;46155;52.364;6.580;2023-10-08T11:07:32;102421.91;;;15.41;100.00
60307;BME280;46155;52.364;6.580;2023-10-08T11:09:59;102433.31;;;15.27;100.00
60307;BME280;46155;52.364;6.580;2023-10-08T11:12:24;102448.34;;;15.28;100.00
60307;BME280;46155;52.364;6.580;2023-10-08T11:15:09;102443.88;;;15.27;100.00
60307;BME280;46155;52.364;6.580;2023-10-08T11:17:40;102446.44;;;15.39;100.00
60307;BME280;46155;52.364;6.580;2023-10-08T11:20:26;102450.63;;;15.48;100.00
60307;BME280;46155;52.364;6.580;2023-10-08T11:22:51;102444.41;;;15.61;100.00
60307;BME280;46155;52.364;6.580;2023-10-08T11:25:23;102444.31;;;15.60;100.00
60307;BME280;46155;52.364;6.580;2023-10-08T11:27:51;102441.88;;;15.63;100.00
60307;BME280;46155;52.364;6.580;2023-10-08T11:30:26;102440.13;;;15.63;100.00
60307;BME280;46155;52.364;6.580;2023-10-08T11:32:55;102436.28;;;15.58;100.00
60307;BME280;46155;52.364;6.580;2023-10-08T11:35:22;102419.97;;;15.65;100.00
60307;BME280;46155;52.364;6.580;2023-10-08T11:37:47;102423.34;;;15.76;100.00
60307;BME280;46155;52.364;6.580;2023-10-08T11:40:25;102407.66;;;15.93;100.00
60307;BME280;46155;52.364;6.580;2023-10-08T11:43:00;102405.28;;;15.97;100.00
60307;BME280;46155;52.364;6.580;2023-10-08T11:45:28;102404.03;;;16.06;100.00
60307;BME280;46155;52.364;6.580;2023-10-08T11:48:04;102396.63;;;16.00;100.00
60307;BME280;46155;52.364;6.580;2023-10-08T11:50:37;102384.59;;;16.05;100.00
60307;BME280;46155;52.364;6.580;2023-10-08T11:53:04;102376.22;;;16.12;100.00
60307;BME280;46155;52.364;6.580;2023-10-08T11:55:32;102384.16;;;16.12;100.00
60307;BME280;46155;52.364;6.580;2023-10-08T11:58:01;102372.16;;;16.17;100.00
60307;BME280;46155;52.364;6.580;2023-10-08T12:00:35;102363.31;;;16.04;96.46
60307;BME280;46155;52.364;6.580;2023-10-08T12:03:01;102351.78;;;16.03;98.93
60307;BME280;46155;52.364;6.580;2023-10-08T12:05:26;102344.31;;;15.82;98.14
60307;BME280;46155;52.364;6.580;2023-10-08T12:07:54;102330.06;;;15.80;99.99
60307;BME280;46155;52.364;6.580;2023-10-08T12:10:23;102328.19;;;15.93;100.00
60307;BME280;46155;52.364;6.580;2023-10-08T12:12:52;102334.22;;;15.63;97.16
60307;BME280;46155;52.364;6.580;2023-10-08T12:15:21;102330.25;;;15.70;98.02
60307;BME280;46155;52.364;6.580;2023-10-08T12:17:48;102327.63;;;15.83;100.00
60307;BME280;46155;52.364;6.580;2023-10-08T12:20:37;102328.78;;;16.02;100.00
60307;BME280;46155;52.364;6.580;2023-10-08T12:23:04;102328.25;;;16.08;99.63
60307;BME280;46155;52.364;6.580;2023-10-08T12:25:31;102319.00;;;16.01;99.32
60307;BME280;46155;52.364;6.580;2023-10-08T12:28:02;102320.94;;;16.04;99.77
60307;BME280;46155;52.364;6.580;2023-10-08T12:30:30;102317.06;;;15.98;100.00
60307;BME280;46155;52.364;6.580;2023-10-08T12:32:59;102319.81;;;16.00;100.00
60307;BME280;46155;52.364;6.580;2023-10-08T12:35:26;102311.88;;;16.00;100.00
60307;BME280;46155;52.364;6.580;2023-10-08T12:37:51;102311.06;;;16.01;100.00
60307;BME280;46155;52.364;6.580;2023-10-08T12:40:16;102315.91;;;16.08;100.00
60307;BME280;46155;52.364;6.580;2023-10-08T12:42:51;102305.22;;;16.07;100.00
60307;BME280;46155;52.364;6.580;2023-10-08T12:45:17;102299.38;;;16.12;100.00
60307;BME280;46155;52.364;6.580;2023-10-08T12:47:52;102309.09;;;16.27;100.00
60307;BME280;46155;52.364;6.580;2023-10-08T12:50:19;102305.66;;;16.28;100.00
60307;BME280;46155;52.364;6.580;2023-10-08T12:53:08;102303.25;;;16.17;99.52
60307;BME280;46155;52.364;6.580;2023-10-08T12:55:37;102305.69;;;16.14;100.00
60307;BME280;46155;52.364;6.580;2023-10-08T12:58:07;102299.22;;;16.09;100.00
60307;BME280;46155;52.364;6.580;2023-10-08T13:00:36;102306.75;;;16.03;100.00
60307;BME280;46155;52.364;6.580;2023-10-08T13:03:03;102305.75;;;16.01;100.00
60307;BME280;46155;52.364;6.580;2023-10-08T13:05:31;102312.97;;;16.04;100.00
60307;BME280;46155;52.364;6.580;2023-10-08T13:07:58;102322.47;;;16.00;100.00
60307;BME280;46155;52.364;6.580;2023-10-08T13:10:35;102317.06;;;15.98;100.00
60307;BME280;46155;52.364;6.580;2023-10-08T13:13:00;102315.53;;;16.02;100.00
60307;BME280;46155;52.364;6.580;2023-10-08T13:15:26;102312.66;;;15.99;100.00
60307;BME280;46155;52.364;6.580;2023-10-08T13:17:52;102309.03;;;15.97;100.00
60307;BME280;46155;52.364;6.580;2023-10-08T13:20:17;102296.41;;;15.93;100.00
60307;BME280;46155;52.364;6.580;2023-10-08T13:22:43;102308.22;;;15.98;100.00
60307;BME280;46155;52.364;6.580;2023-10-08T13:25:09;102312.88;;;16.02;100.00
60307;BME280;46155;52.364;6.580;2023-10-08T13:27:36;102315.75;;;15.92;100.00
60307;BME280;46155;52.364;6.580;2023-10-08T13:30:06;102310.38;;;15.90;100.00
60307;BME280;46155;52.364;6.580;2023-10-08T13:32:34;102317.03;;;15.83;100.00
60307;BME280;46155;52.364;6.580;2023-10-08T13:35:01;102309.28;;;15.87;100.00
60307;BME280;46155;52.364;6.580;2023-10-08T13:37:26;102308.66;;;15.91;100.00
60307;BME280;46155;52.364;6.580;2023-10-08T13:39:52;102307.06;;;16.08;100.00
60307;BME280;46155;52.364;6.580;2023-10-08T13:42:18;102313.25;;;16.08;100.00
60307;BME280;46155;52.364;6.580;2023-10-08T13:44:45;102332.44;;;16.04;100.00
60307;BME280;46155;52.364;6.580;2023-10-08T13:47:11;102339.56;;;16.05;100.00
60307;BME280;46155;52.364;6.580;2023-10-08T13:49:40;102326.13;;;16.02;100.00
60307;BME280;46155;52.364;6.580;2023-10-08T13:52:06;102319.63;;;15.97;100.00
60307;BME280;46155;52.364;6.580;2023-10-08T13:54:33;102340.91;;;15.98;100.00
60307;BME280;46155;52.364;6.580;2023-10-08T13:57:01;102316.53;;;16.04;100.00
60307;BME280;46155;52.364;6.580;2023-10-08T13:59:28;102316.44;;;16.03;100.00
60307;BME280;46155;52.364;6.580;2023-10-08T14:01:56;102298.38;;;16.10;100.00
60307;BME280;46155;52.364;6.580;2023-10-08T14:04:22;102287.78;;;16.10;100.00
60307;BME280;46155;52.364;6.580;2023-10-08T14:06:59;102291.81;;;15.90;100.00
60307;BME280;46155;52.364;6.580;2023-10-08T14:09:25;102297.31;;;15.93;100.00
60307;BME280;46155;52.364;6.580;2023-10-08T14:11:56;102287.06;;;15.84;100.00
60307;BME280;46155;52.364;6.580;2023-10-08T14:14:22;102269.56;;;15.87;100.00
60307;BME280;46155;52.364;6.580;2023-10-08T14:16:50;102276.47;;;15.84;100.00
60307;BME280;46155;52.364;6.580;2023-10-08T14:19:19;102264.56;;;15.78;100.00
60307;BME280;46155;52.364;6.580;2023-10-08T14:21:53;102262.22;;;15.82;100.00
60307;BME280;46155;52.364;6.580;2023-10-08T14:24:33;102248.19;;;15.83;100.00
60307;BME280;46155;52.364;6.580;2023-10-08T14:27:03;102245.09;;;15.91;100.00
60307;BME280;46155;52.364;6.580;2023-10-08T14:29:35;102248.19;;;15.83;100.00
60307;BME280;46155;52.364;6.580;2023-10-08T14:32:00;102277.31;;;15.83;100.00
60307;BME280;46155;52.364;6.580;2023-10-08T14:34:25;102299.78;;;15.77;100.00
60307;BME280;46155;52.364;6.580;2023-10-08T14:37:09;102312.94;;;15.75;100.00
60307;BME280;46155;52.364;6.580;2023-10-08T14:39:53;102312.13;;;15.76;100.00
60307;BME280;46155;52.364;6.580;2023-10-08T14:42:37;102302.06;;;15.57;100.00
60307;BME280;46155;52.364;6.580;2023-10-08T14:45:28;102287.50;;;15.64;100.00
60307;BME280;46155;52.364;6.580;2023-10-08T14:47:57;102275.28;;;15.66;100.00
60307;BME280;46155;52.364;6.580;2023-10-08T14:50:24;102266.63;;;15.69;100.00
60307;BME280;46155;52.364;6.580;2023-10-08T14:52:52;102259.91;;;15.74;100.00
60307;BME280;46155;52.364;6.580;2023-10-08T14:55:18;102255.50;;;15.74;100.00
60307;BME280;46155;52.364;6.580;2023-10-08T14:57:46;102263.84;;;15.80;100.00
60307;BME280;46155;52.364;6.580;2023-10-08T15:00:12;102262.22;;;15.82;100.00
60307;BME280;46155;52.364;6.580;2023-10-08T15:02:38;102267.72;;;15.86;100.00
60307;BME280;46155;52.364;6.580;2023-10-08T15:05:06;102247.13;;;15.95;100.00
60307;BME280;46155;52.364;6.580;2023-10-08T15:07:35;102234.06;;;15.98;100.00
60307;BME280;46155;52.364;6.580;2023-10-08T15:10:01;102230.28;;;15.94;100.00
60307;BME280;46155;52.364;6.580;2023-10-08T15:12:27;102229.56;;;15.97;100.00
60307;BME280;46155;52.364;6.580;2023-10-08T15:14:53;102238.13;;;15.93;100.00
60307;BME280;46155;52.364;6.580;2023-10-08T15:17:18;102222.69;;;15.86;100.00
60307;BME280;46155;52.364;6.580;2023-10-08T15:19:44;102235.31;;;15.90;100.00
60307;BME280;46155;52.364;6.580;2023-10-08T15:22:12;102244.50;;;15.81;100.00
60307;BME280;46155;52.364;6.580;2023-10-08T15:24:37;102244.19;;;15.77;100.00
60307;BME280;46155;52.364;6.580;2023-10-08T15:27:05;102239.53;;;15.73;100.00
60307;BME280;46155;52.364;6.580;2023-10-08T15:29:30;102241.25;;;15.72;100.00
60307;BME280;46155;52.364;6.580;2023-10-08T15:31:56;102240.94;;;15.67;100.00
60307;BME280;46155;52.364;6.580;2023-10-08T15:34:22;102227.63;;;15.66;100.00
60307;BME280;46155;52.364;6.580;2023-10-08T15:36:49;102226.28;;;15.73;100.00
60307;BME280;46155;52.364;6.580;2023-10-08T15:39:14;102227.19;;;15.73;100.00
60307;BME280;46155;52.364;6.580;2023-10-08T15:41:50;102217.03;;;15.66;100.00
60307;BME280;46155;52.364;6.580;2023-10-08T15:44:19;102211.47;;;15.61;100.00
60307;BME280;46155;52.364;6.580;2023-10-08T15:46:48;102204.66;;;15.52;100.00
60307;BME280;46155;52.364;6.580;2023-10-08T15:49:14;102213.81;;;15.57;100.00
60307;BME280;46155;52.364;6.580;2023-10-08T15:51:39;102204.56;;;15.50;100.00
60307;BME280;46155;52.364;6.580;2023-10-08T15:54:05;102199.09;;;15.47;100.00
60307;BME280;46155;52.364;6.580;2023-10-08T15:56:31;102198.94;;;15.59;100.00
60307;BME280;46155;52.364;6.580;2023-10-08T15:58:57;102206.06;;;15.60;100.00
60307;BME280;46155;52.364;6.580;2023-10-08T16:01:22;102205.03;;;15.58;100.00
60307;BME280;46155;52.364;6.580;2023-10-08T16:03:48;102197.94;;;15.57;100.00
60307;BME280;46155;52.364;6.580;2023-10-08T16:06:14;102201.78;;;15.62;100.00
60307;BME280;46155;52.364;6.580;2023-10-08T16:08:39;102181.47;;;15.47;100.00
60307;BME280;46155;52.364;6.580;2023-10-08T16:11:05;102192.47;;;15.54;100.00
60307;BME280;46155;52.364;6.580;2023-10-08T16:13:30;102189.22;;;15.44;100.00
60307;BME280;46155;52.364;6.580;2023-10-08T16:15:55;102183.03;;;15.44;100.00
60307;BME280;46155;52.364;6.580;2023-10-08T16:18:24;102179.06;;;15.37;100.00